createdAt,value
2023-08-03T00:01:05.668Z,101027.81
2023-08-03T00:03:33.097Z,101018.16
2023-08-03T00:06:00.557Z,101023.47
2023-08-03T00:08:27.815Z,101032.28
2023-08-03T00:10:55.142Z,101034.94
2023-08-03T00:13:22.182Z,101034.06
2023-08-03T00:15:49.307Z,101033.16
2023-08-03T00:18:16.614Z,101026.13
2023-08-03T00:20:43.642Z,101027.03
2023-08-03T00:23:10.743Z,101027.09
2023-08-03T00:25:37.849Z,101030.59
2023-08-03T00:28:05.046Z,101033.25
2023-08-03T00:30:32.080Z,101031.47
2023-08-03T00:32:59.183Z,101035.06
2023-08-03T00:35:26.349Z,101028.00
2023-08-03T00:37:54.804Z,101034.19
2023-08-03T00:40:22.411Z,101027.16
2023-08-03T00:42:49.552Z,101026.34
2023-08-03T00:45:16.690Z,101031.69
2023-08-03T00:47:43.920Z,101042.28
2023-08-03T00:50:11.222Z,101042.28
2023-08-03T00:52:39.326Z,101036.16
2023-08-03T00:55:06.825Z,101036.19
2023-08-03T00:57:33.925Z,101030.03
2023-08-03T01:00:01.728Z,101036.22
2023-08-03T01:02:28.966Z,101031.78
2023-08-03T01:04:56.064Z,101036.19
2023-08-03T01:07:25.053Z,101048.50
2023-08-03T01:09:52.224Z,101045.00
2023-08-03T01:12:19.536Z,101035.28
2023-08-03T01:14:46.865Z,101030.84
2023-08-03T01:17:14.005Z,101032.59
2023-08-03T01:19:41.129Z,101020.25
2023-08-03T01:22:10.451Z,101028.13
2023-08-03T01:24:37.526Z,101018.47
2023-08-03T01:27:04.707Z,101034.28
2023-08-03T01:29:31.897Z,101048.44
2023-08-03T01:32:00.583Z,101043.16
2023-08-03T01:34:28.229Z,101040.47
2023-08-03T01:36:55.800Z,101045.72
2023-08-03T01:39:24.478Z,101037.75
2023-08-03T01:41:51.907Z,101036.03
2023-08-03T01:44:22.619Z,101039.56
2023-08-03T01:46:50.055Z,101043.16
2023-08-03T01:49:17.491Z,101044.03
2023-08-03T01:51:44.805Z,101044.06
2023-08-03T01:54:12.495Z,101043.19
2023-08-03T01:56:39.907Z,101044.13
2023-08-03T01:59:06.977Z,101034.44
2023-08-03T02:01:34.163Z,101044.16
2023-08-03T02:04:01.492Z,101045.94
2023-08-03T02:06:28.674Z,101043.34
2023-08-03T02:08:56.111Z,101038.94
2023-08-03T02:11:23.145Z,101039.81
2023-08-03T02:13:50.260Z,101039.00
2023-08-03T02:16:24.469Z,101043.38
2023-08-03T02:18:52.129Z,101043.41
2023-08-03T02:21:19.443Z,101041.69
2023-08-03T02:23:46.623Z,101040.81
2023-08-03T02:26:13.726Z,101043.44
2023-08-03T02:28:40.767Z,101042.59
2023-08-03T02:31:07.860Z,101051.41
2023-08-03T02:33:43.186Z,101057.59
2023-08-03T02:36:10.911Z,101063.75
2023-08-03T02:38:38.951Z,101056.72
2023-08-03T02:41:06.129Z,101061.13
2023-08-03T02:43:34.489Z,101050.56
2023-08-03T02:46:03.322Z,101054.09
2023-08-03T02:48:33.421Z,101051.47
2023-08-03T02:51:03.904Z,101043.56
2023-08-03T02:53:35.530Z,101043.59
2023-08-03T02:56:03.549Z,101043.56
2023-08-03T02:58:36.999Z,101038.31
2023-08-03T03:01:12.662Z,101041.81
2023-08-03T03:03:40.063Z,101035.66
2023-08-03T03:06:08.421Z,101035.66
2023-08-03T03:08:36.080Z,101026.88
2023-08-03T03:11:03.276Z,101031.28
2023-08-03T03:13:30.484Z,101023.41
2023-08-03T03:15:57.830Z,101028.63
2023-08-03T03:18:24.962Z,101034.78
2023-08-03T03:20:52.162Z,101027.78
2023-08-03T03:23:19.501Z,101024.25
2023-08-03T03:25:46.551Z,101021.63
2023-08-03T03:28:13.824Z,101040.97
2023-08-03T03:30:41.399Z,101050.59
2023-08-03T03:33:08.548Z,101053.25
2023-08-03T03:35:39.489Z,101052.38
2023-08-03T03:38:07.135Z,101052.38
2023-08-03T03:40:34.995Z,101051.47
2023-08-03T03:43:03.373Z,101049.72
2023-08-03T03:45:32.162Z,101047.97
2023-08-03T03:47:59.293Z,101048.81
2023-08-03T03:50:26.816Z,101052.34
2023-08-03T03:52:54.310Z,101045.31
2023-08-03T03:55:22.224Z,101047.97
2023-08-03T03:57:53.719Z,101047.09
2023-08-03T04:00:23.881Z,101045.31
2023-08-03T04:02:53.187Z,101040.03
2023-08-03T04:05:22.452Z,101047.06
2023-08-03T04:07:49.572Z,101047.97
2023-08-03T04:10:16.723Z,101049.72
2023-08-03T04:12:43.844Z,101045.34
2023-08-03T04:15:11.103Z,101040.94
2023-08-03T04:17:39.917Z,101050.63
2023-08-03T04:20:11.078Z,101051.50
2023-08-03T04:22:38.313Z,101052.34
2023-08-03T04:25:06.061Z,101050.63
2023-08-03T04:27:33.401Z,101062.94
2023-08-03T04:30:00.578Z,101063.78
2023-08-03T04:32:29.155Z,101060.25
2023-08-03T04:34:56.215Z,101075.22
2023-08-03T04:37:23.314Z,101089.25
2023-08-03T04:39:50.976Z,101096.28
2023-08-03T04:42:18.178Z,101111.22
2023-08-03T04:44:45.644Z,101111.22
2023-08-03T04:47:13.106Z,101113.00
2023-08-03T04:49:41.031Z,101109.47
2023-08-03T04:52:11.385Z,101096.31
2023-08-03T04:54:38.961Z,101108.63
2023-08-03T04:57:06.276Z,101100.69
2023-08-03T04:59:38.006Z,101098.06
2023-08-03T05:02:17.851Z,101097.16
2023-08-03T05:04:49.121Z,101098.06
2023-08-03T05:07:17.076Z,101098.06
2023-08-03T05:09:46.985Z,101104.19
2023-08-03T05:12:14.175Z,101114.78
2023-08-03T05:14:41.626Z,101110.34
2023-08-03T05:17:09.456Z,101111.25
2023-08-03T05:19:36.642Z,101111.25
2023-08-03T05:22:04.228Z,101099.81
2023-08-03T05:24:34.779Z,101092.78
2023-08-03T05:27:06.300Z,101082.25
2023-08-03T05:29:36.393Z,101110.34
2023-08-03T05:32:03.833Z,101104.22
2023-08-03T05:34:32.279Z,101102.44
2023-08-03T05:36:59.605Z,101103.31
2023-08-03T05:39:31.453Z,101101.56
2023-08-03T05:42:00.940Z,101100.69
2023-08-03T05:44:29.123Z,101105.06
2023-08-03T05:46:56.971Z,101103.31
2023-08-03T05:49:25.787Z,101103.31
2023-08-03T05:51:53.058Z,101102.44
2023-08-03T05:54:24.234Z,101102.44
2023-08-03T05:56:52.200Z,101101.56
2023-08-03T05:59:21.525Z,101105.09
2023-08-03T06:01:49.886Z,101105.97
2023-08-03T06:04:25.298Z,101116.50
2023-08-03T06:06:55.568Z,101114.75
2023-08-03T06:09:25.496Z,101115.59
2023-08-03T06:11:55.218Z,101115.59
2023-08-03T06:14:22.702Z,101112.97
2023-08-03T06:16:49.891Z,101119.16
2023-08-03T06:19:19.761Z,101120.88
2023-08-03T06:21:49.520Z,101124.38
2023-08-03T06:24:22.149Z,101119.09
2023-08-03T06:26:52.550Z,101122.59
2023-08-03T06:29:20.038Z,101126.13
2023-08-03T06:31:48.328Z,101124.31
2023-08-03T06:34:16.218Z,101136.66
2023-08-03T06:36:50.191Z,101126.97
2023-08-03T06:39:17.445Z,101136.66
2023-08-03T06:41:48.057Z,101131.31
2023-08-03T06:44:21.102Z,101131.28
2023-08-03T06:46:48.772Z,101125.06
2023-08-03T06:49:24.238Z,101124.13
2023-08-03T06:51:54.744Z,101121.41
2023-08-03T06:54:22.700Z,101131.91
2023-08-03T06:56:50.060Z,101128.38
2023-08-03T06:59:22.602Z,101128.38
2023-08-03T07:01:50.543Z,101123.06
2023-08-03T07:04:18.141Z,101131.84
2023-08-03T07:06:47.830Z,101138.00
2023-08-03T07:09:18.065Z,101140.66
2023-08-03T07:11:45.780Z,101135.31
2023-08-03T07:14:18.366Z,101140.53
2023-08-03T07:16:45.730Z,101142.16
2023-08-03T07:19:14.639Z,101149.16
2023-08-03T07:21:45.303Z,101155.34
2023-08-03T07:24:13.144Z,101146.47
2023-08-03T07:26:40.329Z,101148.25
2023-08-03T07:29:10.644Z,101157.94
2023-08-03T07:31:38.220Z,101156.03
2023-08-03T07:34:05.525Z,101156.81
2023-08-03T07:36:36.321Z,101149.72
2023-08-03T07:39:04.145Z,101155.84
2023-08-03T07:41:31.816Z,101159.31
2023-08-03T07:44:01.857Z,101159.28
2023-08-03T07:46:29.230Z,101158.28
2023-08-03T07:48:57.243Z,101163.47
2023-08-03T07:51:29.178Z,101163.34
2023-08-03T07:53:57.558Z,101158.03
2023-08-03T07:56:34.572Z,101156.25
2023-08-03T07:59:08.845Z,101150.00
2023-08-03T08:01:36.363Z,101116.44
2023-08-03T08:04:04.368Z,101129.69
2023-08-03T08:06:31.668Z,101133.97
2023-08-03T08:08:59.279Z,101134.78
2023-08-03T08:11:32.733Z,101135.59
2023-08-03T08:14:01.171Z,101136.47
2023-08-03T08:16:28.546Z,101139.06
2023-08-03T08:18:55.957Z,101130.16
2023-08-03T08:21:23.412Z,101125.72
2023-08-03T08:23:51.798Z,101131.91
2023-08-03T08:26:20.042Z,101126.50
2023-08-03T08:29:00.119Z,101124.69
2023-08-03T08:31:41.101Z,101122.75
2023-08-03T08:34:16.904Z,101117.41
2023-08-03T08:36:44.327Z,101118.09
2023-08-03T08:39:11.833Z,101116.97
2023-08-03T08:41:40.357Z,101113.31
2023-08-03T08:44:07.717Z,101121.88
2023-08-03T08:46:35.067Z,101109.13
2023-08-03T08:49:06.036Z,101116.16
2023-08-03T09:01:54.953Z,101105.06
2023-08-03T09:04:34.197Z,101103.22
2023-08-03T09:07:05.402Z,101105.34
2023-08-03T09:09:37.249Z,101106.38
2023-08-03T09:12:05.920Z,101119.88
2023-08-03T09:14:49.742Z,101129.03
2023-08-03T09:17:18.964Z,101145.19
2023-08-03T09:25:10.388Z,101192.47
2023-08-03T09:32:59.384Z,101201.03
2023-08-03T09:35:27.287Z,101195.66
2023-08-03T09:37:55.888Z,101193.84
2023-08-03T09:40:25.431Z,101185.78
2023-08-03T09:40:47.385Z,101205.22
2023-08-03T09:42:54.056Z,101189.25
2023-08-03T09:47:53.460Z,101191.59
2023-08-03T09:50:21.006Z,101189.66
2023-08-03T09:52:49.774Z,101192.25
2023-08-03T09:55:23.040Z,101189.56
2023-08-03T09:58:02.751Z,101199.19
2023-08-03T10:00:31.279Z,101192.84
2023-08-03T10:03:11.264Z,101189.09
2023-08-03T10:05:41.710Z,101186.94
2023-08-03T10:08:18.786Z,101177.06
2023-08-03T10:10:50.176Z,101178.88
2023-08-03T10:13:17.693Z,101174.22
2023-08-03T10:15:44.963Z,101163.34
2023-08-03T10:18:12.777Z,101156.91
2023-08-03T10:20:40.238Z,101153.50
2023-08-03T10:23:08.953Z,101149.06
2023-08-03T10:25:51.575Z,101146.78
2023-08-03T10:28:18.887Z,101150.94
2023-08-03T10:31:08.843Z,101143.66
2023-08-03T10:33:48.932Z,101135.09
2023-08-03T10:36:31.823Z,101148.66
2023-08-03T10:39:00.569Z,101144.53
2023-08-03T10:41:28.874Z,101151.44
2023-08-03T10:44:12.187Z,101158.16
2023-08-03T10:46:41.244Z,101158.78
2023-08-03T10:49:21.283Z,101147.84
2023-08-03T10:51:53.228Z,101147.25
2023-08-03T10:54:29.627Z,101143.97
2023-08-03T10:57:10.001Z,101149.53
2023-08-03T10:59:37.953Z,101136.13
2023-08-03T11:02:27.680Z,101145.72
2023-08-03T11:04:55.153Z,101134.31
2023-08-03T11:07:29.561Z,101139.19
2023-08-03T11:09:57.428Z,101129.78
2023-08-03T11:12:25.998Z,101134.84
2023-08-03T11:14:54.423Z,101131.16
2023-08-03T11:17:23.495Z,101131.53
2023-08-03T11:19:50.937Z,101123.38
2023-08-03T11:22:18.232Z,101123.00
2023-08-03T11:24:45.837Z,101130.97
2023-08-03T11:27:14.337Z,101124.19
2023-08-03T11:29:43.903Z,101122.88
2023-08-03T11:32:13.433Z,101122.03
2023-08-03T11:34:40.854Z,101112.38
2023-08-03T11:37:08.901Z,101127.06
2023-08-03T11:39:36.654Z,101159.72
2023-08-03T11:42:07.977Z,101165.41
2023-08-03T11:44:42.362Z,101168.78
2023-08-03T11:47:17.731Z,101157.28
2023-08-03T11:49:45.730Z,101160.03
2023-08-03T11:52:23.134Z,101160.88
2023-08-03T11:54:50.890Z,101158.47
2023-08-03T11:57:36.734Z,101159.81
2023-08-03T12:00:05.047Z,101153.66
2023-08-03T12:02:44.802Z,101144.31
2023-08-03T12:05:18.085Z,101143.63
2023-08-03T12:10:26.214Z,101126.66
2023-08-03T12:13:00.784Z,101132.16
2023-08-03T12:17:56.165Z,101121.00
2023-08-03T12:20:26.997Z,101137.53
2023-08-03T12:22:54.966Z,101117.88
2023-08-03T12:25:22.758Z,101134.44
2023-08-03T12:27:50.290Z,101143.81
2023-08-03T12:30:17.792Z,101132.03
2023-08-03T12:32:45.390Z,101130.91
2023-08-03T12:35:12.702Z,101141.03
2023-08-03T12:37:40.147Z,101157.50
2023-08-03T12:40:07.854Z,101146.19
2023-08-03T12:42:35.049Z,101155.88
2023-08-03T12:45:02.380Z,101153.50
2023-08-03T12:47:36.425Z,101152.66
2023-08-03T12:50:07.553Z,101125.56
2023-08-03T12:52:34.793Z,101156.16
2023-08-03T12:55:02.153Z,101174.19
2023-08-03T12:57:29.633Z,101178.72
2023-08-03T12:59:57.111Z,101174.81
2023-08-03T13:02:25.206Z,101174.94
2023-08-03T13:04:54.221Z,101161.16
2023-08-03T13:07:21.812Z,101163.78
2023-08-03T13:09:49.122Z,101161.69
2023-08-03T13:12:16.774Z,101158.66
2023-08-03T13:14:43.892Z,101157.81
2023-08-03T13:17:11.334Z,101151.31
2023-08-03T13:19:42.109Z,101141.81
2023-08-03T13:22:09.300Z,101147.25
2023-08-03T13:24:36.735Z,101149.88
2023-08-03T13:27:13.979Z,101145.09
2023-08-03T13:29:44.105Z,101171.19
2023-08-03T13:32:13.431Z,101184.34
2023-08-03T13:34:46.654Z,101207.41
2023-08-03T13:37:33.882Z,101214.88
2023-08-03T13:40:01.051Z,101224.28
2023-08-03T13:42:28.602Z,101233.84
2023-08-03T13:44:57.211Z,101222.28
2023-08-03T13:47:24.486Z,101218.47
2023-08-03T13:49:51.821Z,101215.22
2023-08-03T13:52:19.187Z,101213.38
2023-08-03T13:54:46.778Z,101214.09
2023-08-03T13:57:14.325Z,101214.53
2023-08-03T13:59:41.770Z,101205.91
2023-08-03T14:02:11.354Z,101207.34
2023-08-03T14:04:39.330Z,101205.94
2023-08-03T14:09:38.075Z,101203.84
2023-08-03T14:12:06.434Z,101196.59
2023-08-03T14:17:05.099Z,101197.16
2023-08-03T14:19:32.335Z,101198.00
2023-08-03T14:21:59.726Z,101192.56
2023-08-03T14:24:27.433Z,101177.06
2023-08-03T14:26:56.987Z,101188.00
2023-08-03T14:29:24.417Z,101198.41
2023-08-03T14:31:51.796Z,101204.66
2023-08-03T14:34:19.492Z,101219.81
2023-08-03T14:36:47.787Z,101217.72
2023-08-03T14:39:17.354Z,101238.28
2023-08-03T14:41:48.668Z,101271.00
2023-08-03T14:44:20.574Z,101257.03
2023-08-03T14:46:48.750Z,101258.00
2023-08-03T14:49:19.213Z,101251.88
2023-08-03T14:54:50.468Z,101247.00
2023-08-03T14:57:23.498Z,101251.03
2023-08-03T14:59:50.960Z,101246.50
2023-08-03T15:02:21.324Z,101243.47
2023-08-03T15:04:49.675Z,101248.31
2023-08-03T15:07:17.345Z,101239.78
2023-08-03T15:09:48.085Z,101236.22
2023-08-03T15:12:15.666Z,101233.13
2023-08-03T15:17:25.325Z,101233.47
2023-08-03T15:22:25.252Z,101235.41
2023-08-03T15:24:53.162Z,101233.06
2023-08-03T15:27:24.816Z,101236.94
2023-08-03T15:29:55.860Z,101238.03
2023-08-03T15:35:25.436Z,101259.56
2023-08-03T15:37:58.444Z,101255.50
2023-08-03T15:41:03.495Z,101244.34
2023-08-03T15:43:37.475Z,101252.44
2023-08-03T15:49:21.060Z,101252.88
2023-08-03T15:51:52.329Z,101260.81
2023-08-03T15:54:29.941Z,101258.28
2023-08-03T15:56:58.489Z,101267.97
2023-08-03T15:59:26.070Z,101280.38
2023-08-03T16:01:54.946Z,101270.44
2023-08-03T16:04:22.308Z,101265.81
2023-08-03T16:06:49.822Z,101261.22
2023-08-03T16:09:17.076Z,101270.81
2023-08-03T16:14:15.310Z,101273.69
2023-08-03T16:16:42.950Z,101279.09
2023-08-03T16:19:10.486Z,101276.59
2023-08-03T16:21:44.053Z,101284.69
2023-08-03T16:24:13.434Z,101283.13
2023-08-03T16:29:53.793Z,101283.28
2023-08-03T16:33:07.855Z,101291.19
2023-08-03T16:35:42.408Z,101292.94
2023-08-03T16:41:16.760Z,101297.38
2023-08-03T16:46:38.088Z,101290.31
2023-08-03T16:55:02.406Z,101307.19
2023-08-03T16:57:30.729Z,101305.41
2023-08-03T16:59:58.077Z,101314.31
2023-08-03T17:02:26.141Z,101309.06
2023-08-03T17:04:53.683Z,101310.81
2023-08-03T17:07:47.191Z,101307.22
2023-08-03T17:10:14.911Z,101312.53
2023-08-03T17:16:16.206Z,101305.22
2023-08-03T17:18:44.013Z,101294.56
2023-08-03T17:21:11.386Z,101290.97
2023-08-03T17:23:41.110Z,101300.78
2023-08-03T17:26:08.546Z,101310.53
2023-08-03T17:28:36.307Z,101310.69
2023-08-03T17:31:05.259Z,101301.03
2023-08-03T17:33:34.341Z,101308.22
2023-08-03T17:36:11.774Z,101310.94
2023-08-03T17:38:39.371Z,101310.97
2023-08-03T17:41:06.698Z,101329.53
2023-08-03T17:43:34.554Z,101335.72
2023-08-03T17:46:08.799Z,101346.38
2023-08-03T17:51:47.673Z,101341.13
2023-08-03T17:54:42.893Z,101349.97
2023-08-03T17:57:10.374Z,101352.66
2023-08-03T17:59:37.923Z,101355.28
2023-08-03T18:02:05.663Z,101350.94
2023-08-03T18:04:33.759Z,101354.41
2023-08-03T18:07:01.384Z,101350.00
2023-08-03T18:09:29.970Z,101351.75
2023-08-03T18:11:57.481Z,101358.81
2023-08-03T18:14:24.743Z,101356.16
2023-08-03T18:16:52.243Z,101354.41
2023-08-03T18:19:20.375Z,101365.94
2023-08-03T18:21:54.098Z,101375.66
2023-08-03T18:24:22.021Z,101379.19
2023-08-03T18:26:49.646Z,101376.53
2023-08-03T18:29:16.854Z,101388.03
2023-08-03T18:34:42.758Z,101385.38
2023-08-03T18:40:21.631Z,101398.63
2023-08-03T18:42:49.363Z,101398.63
2023-08-03T18:48:12.714Z,101408.34
2023-08-03T18:50:58.266Z,101404.88
2023-08-03T18:53:26.902Z,101404.00
2023-08-03T18:55:54.854Z,101414.59
2023-08-03T18:58:22.375Z,101411.06
2023-08-03T19:00:49.694Z,101415.47
2023-08-03T19:03:17.350Z,101417.22
2023-08-03T19:05:44.785Z,101420.78
2023-08-03T19:08:12.136Z,101418.16
2023-08-03T19:10:40.862Z,101419.94
2023-08-03T19:13:09.629Z,101419.94
2023-08-03T19:19:21.145Z,101418.16
2023-08-03T19:21:49.055Z,101412.91
2023-08-03T19:24:27.321Z,101420.88
2023-08-03T19:26:56.973Z,101419.13
2023-08-03T19:29:24.349Z,101420.03
2023-08-03T19:31:52.125Z,101426.22
2023-08-03T19:34:19.607Z,101426.22
2023-08-03T19:36:47.132Z,101420.97
2023-08-03T19:39:14.702Z,101419.19
2023-08-03T19:41:41.850Z,101428.91
2023-08-03T19:44:09.213Z,101428.03
2023-08-03T19:46:42.746Z,101450.06
2023-08-03T19:50:26.724Z,101458.88
2023-08-03T19:53:40.651Z,101462.41
2023-08-03T20:07:38.768Z,101469.44
2023-08-03T20:10:06.564Z,101469.44
2023-08-03T20:17:34.999Z,101472.97
2023-08-03T20:20:02.379Z,101478.25
2023-08-03T20:22:30.804Z,101484.41
2023-08-03T20:27:28.896Z,101495.00
2023-08-03T20:32:29.066Z,101488.78
2023-08-03T20:34:56.971Z,101504.63
2023-08-03T20:37:27.062Z,101494.97
2023-08-03T20:49:56.318Z,101505.50
2023-08-03T20:52:23.977Z,101501.09
2023-08-03T20:54:51.296Z,101513.44
2023-08-03T20:57:20.788Z,101511.66
2023-08-03T20:59:48.657Z,101512.53
2023-08-03T21:02:16.037Z,101520.44
2023-08-03T21:04:49.616Z,101519.56
2023-08-03T21:07:17.870Z,101523.06
2023-08-03T21:10:50.239Z,101516.88
2023-08-03T21:12:49.077Z,101529.19
2023-08-03T21:15:18.432Z,101530.94
2023-08-03T21:17:45.704Z,101534.47
2023-08-03T21:20:12.821Z,101541.47
2023-08-03T21:22:40.643Z,101536.19
2023-08-03T21:25:08.617Z,101547.56
2023-08-03T21:27:36.964Z,101542.25
2023-08-03T21:30:05.291Z,101545.75
2023-08-03T21:32:35.208Z,101554.53
2023-08-03T21:35:03.718Z,101550.16
2023-08-03T21:39:58.810Z,101550.16
2023-08-03T21:42:27.026Z,101555.44
2023-08-03T21:44:54.321Z,101555.44
2023-08-03T21:47:21.973Z,101556.34
2023-08-03T21:49:49.337Z,101566.03
2023-08-03T21:52:17.518Z,101552.81
2023-08-03T21:54:45.123Z,101558.13
2023-08-03T21:57:12.544Z,101565.16
2023-08-03T21:59:39.968Z,101560.75
2023-08-03T22:02:07.437Z,101567.81
2023-08-03T22:04:34.565Z,101566.03
2023-08-03T22:07:01.625Z,101560.81
2023-08-03T22:09:28.729Z,101559.06
2023-08-03T22:11:55.904Z,101559.97
2023-08-03T22:14:23.107Z,101566.09
2023-08-03T22:16:50.318Z,101564.31
2023-08-03T22:19:17.621Z,101566.97
2023-08-03T22:21:51.065Z,101568.72
2023-08-03T22:24:20.027Z,101566.03
2023-08-03T22:26:47.430Z,101569.53
2023-08-03T22:29:14.629Z,101570.41
2023-08-03T22:31:41.778Z,101566.88
2023-08-03T22:34:08.925Z,101570.38
2023-08-03T22:36:36.087Z,101562.44
2023-08-03T22:39:03.251Z,101573.81
2023-08-03T22:41:34.280Z,101572.94
2023-08-03T22:44:01.545Z,101567.66
2023-08-03T22:46:28.790Z,101563.22
2023-08-03T22:48:56.125Z,101571.97
2023-08-03T22:51:23.169Z,101572.84
2023-08-03T22:53:50.268Z,101575.44
2023-08-03T22:56:17.720Z,101569.28
2023-08-03T22:58:45.075Z,101568.38
2023-08-03T23:01:22.233Z,101568.38
2023-08-03T23:03:50.168Z,101565.72
2023-08-03T23:06:18.327Z,101566.63
2023-08-03T23:08:45.560Z,101573.66
2023-08-03T23:11:12.811Z,101570.16
2023-08-03T23:13:40.405Z,101571.91
2023-08-03T23:16:07.800Z,101568.41
2023-08-03T23:18:35.490Z,101574.59
2023-08-03T23:21:04.126Z,101564.91
2023-08-03T23:23:31.619Z,101566.69
2023-08-03T23:26:05.910Z,101562.31
2023-08-03T23:28:33.462Z,101565.81
2023-08-03T23:31:00.811Z,101565.81
2023-08-03T23:33:28.529Z,101563.19
2023-08-03T23:35:55.714Z,101564.94
2023-08-03T23:38:22.885Z,101567.59
2023-08-03T23:40:50.018Z,101571.13
2023-08-03T23:43:17.069Z,101568.47
2023-08-03T23:45:44.276Z,101561.44
2023-08-03T23:48:11.446Z,101561.41
2023-08-03T23:50:38.484Z,101560.50
2023-08-03T23:53:05.673Z,101569.28
2023-08-03T23:55:32.939Z,101568.38
2023-08-03T23:58:00.051Z,101567.44
